KBAD/BAD METAR and TAF weather

Enter ICAO airport designator
Station Type Date Time Source
KBAD METAR 2022/11/30 09:55 UTC NOAA

KBAD 300955Z AUTO 34010KT 10SM CLR 07/02 A3013 RMK AO2 SLP207 T00740015


Station Type Date Time Source
KBAD Decoded METAR 2022/11/30 09:55 UTC NOAA

Barksdale Air Force Base, LA, United States (KBAD) 32-30N 093-40W
Nov 30, 2022 - 04:55 AM EST / 2022.11.30 0955 UTC
Wind: from the NNW (340 degrees) at 12 MPH (10 KT):0
Visibility: 10 mile(s):0
Sky conditions: clear
Temperature: 45.3 F (7.4 C)
Dew Point: 34.7 F (1.5 C)
Relative Humidity: 66%
Pressure (altimeter): 30.13 in. Hg (1020 hPa)
ob: KBAD 300955Z AUTO 34010KT 10SM CLR 07/02 A3013 RMK AO2 SLP207 T00740015
cycle: 10

Station Type Date Time Source
KBAD TAF 2022/11/30 04:07 UTC NOAA

TAF KBAD 300400Z 3004/0110 22012G18KT 9999 -RA FEW040 QNH2979INS
TEMPO 3004/3006 9999 -RA OVC008
BECMG 3007/3008 35015G25KT 9999 NSW SKC QNH3005INS
BECMG 3017/3018 01012G20KT 9999 SKC QNH3031INS
BECMG 3023/3024 35010KT 9999 SKC QNH3031INS TX21/3004Z TN04/3012Z

Example: see airport list